Time;durP1;ratioP1;P1;durP2;ratioP2;P2;SDS_P1;SDS_P2;PMS_P1;PMS_P2;Temp;Humidity;BMP_temperature;BMP_pressure;BME280_temperature;BME280_humidity;BME280_pressure;Samples;Min_cycle;Max_cycle;Signal;HPM_P1;HPM_P2
2022/02/18 00:01:59;;;;;;;29.10;3.72;;;5.00;99.90;;;;;;5092256;28;20043;-78
2022/02/18 00:04:25;;;;;;;32.50;3.88;;;5.00;99.90;;;;;;5109298;28;20050;-78
2022/02/18 00:06:51;;;;;;;24.63;3.17;;;4.90;99.90;;;;;;5093665;28;20402;-79
2022/02/18 00:09:16;;;;;;;25.48;2.90;;;5.00;99.90;;;;;;5112063;27;20050;-79
2022/02/18 00:11:42;;;;;;;26.50;3.33;;;5.00;99.90;;;;;;5109012;28;20375;-78
2022/02/18 00:14:08;;;;;;;26.45;3.30;;;4.90;99.90;;;;;;5102782;28;20035;-78
2022/02/18 00:16:33;;;;;;;20.38;2.75;;;4.90;99.90;;;;;;5071539;28;20060;-78
2022/02/18 00:18:59;;;;;;;22.35;3.22;;;4.90;99.90;;;;;;5094104;28;20054;-76
2022/02/18 00:21:25;;;;;;;31.85;3.92;;;4.90;99.90;;;;;;5111609;28;20031;-78
2022/02/18 00:23:50;;;;;;;24.17;3.78;;;4.80;99.90;;;;;;5086079;28;20052;-78
2022/02/18 00:26:16;;;;;;;18.15;3.05;;;4.90;99.90;;;;;;5090761;28;20028;-77
2022/02/18 00:28:42;;;;;;;27.00;3.30;;;4.70;99.90;;;;;;5103707;28;20056;-78
2022/02/18 00:31:08;;;;;;;32.63;4.13;;;4.70;99.90;;;;;;5125572;27;20373;-78
2022/02/18 00:33:34;;;;;;;27.75;3.83;;;4.70;99.90;;;;;;5111592;28;20035;-82
2022/02/18 00:36:00;;;;;;;19.33;2.45;;;4.60;99.90;;;;;;5123336;27;20462;-78
2022/02/18 00:38:25;;;;;;;28.40;2.90;;;4.60;99.90;;;;;;5073016;28;20496;-79
2022/02/18 00:40:51;;;;;;;30.00;3.35;;;4.80;99.90;;;;;;5092863;28;20059;-78
2022/02/18 00:43:17;;;;;;;26.40;3.10;;;4.60;99.90;;;;;;5105718;28;20032;-78
2022/02/18 00:45:42;;;;;;;20.75;2.88;;;4.60;99.90;;;;;;5091802;28;20039;-78
2022/02/18 00:48:09;;;;;;;27.10;3.40;;;4.60;99.90;;;;;;5092515;28;20240;-78
2022/02/18 00:50:35;;;;;;;21.75;3.00;;;4.60;99.90;;;;;;5126222;27;20434;-79
2022/02/18 00:53:02;;;;;;;28.30;3.35;;;4.50;99.90;;;;;;5073000;28;20050;-78
2022/02/18 00:55:28;;;;;;;30.13;3.88;;;4.50;99.90;;;;;;5073200;28;20043;-78
2022/02/18 00:57:54;;;;;;;20.90;3.47;;;4.50;99.90;;;;;;5069065;28;20031;-78
2022/02/18 01:00:21;;;;;;;20.38;3.05;;;4.50;99.90;;;;;;5106913;28;20495;-77
2022/02/18 01:02:47;;;;;;;29.63;3.30;;;4.40;99.90;;;;;;5087992;28;20055;-78
2022/02/18 01:05:13;;;;;;;23.65;2.78;;;4.50;99.90;;;;;;5087333;28;20444;-77
2022/02/18 01:07:39;;;;;;;23.80;3.22;;;4.40;99.90;;;;;;5088357;28;20111;-78
2022/02/18 01:10:07;;;;;;;18.48;2.63;;;4.40;99.90;;;;;;5090370;28;20516;-78
2022/02/18 01:12:33;;;;;;;27.92;3.15;;;4.40;99.90;;;;;;5087921;28;20506;-78
2022/02/18 01:14:59;;;;;;;24.55;2.70;;;4.30;99.90;;;;;;5090943;28;20032;-78
2022/02/18 01:17:24;;;;;;;21.05;2.55;;;4.30;99.90;;;;;;5065470;28;20400;-79
2022/02/18 01:19:50;;;;;;;22.02;2.25;;;4.30;99.90;;;;;;5088189;28;20075;-77
2022/02/18 01:22:16;;;;;;;13.68;2.47;;;4.20;99.90;;;;;;5120051;27;20059;-78
2022/02/18 01:24:41;;;;;;;23.35;2.90;;;4.20;99.90;;;;;;5092515;28;20036;-79
2022/02/18 01:27:07;;;;;;;16.15;2.45;;;4.40;99.90;;;;;;5086998;28;20052;-79
2022/02/18 01:29:38;;;;;;;22.80;2.50;;;4.20;99.90;;;;;;5104487;28;20051;-79
2022/02/18 01:32:06;;;;;;;19.98;2.58;;;4.20;99.90;;;;;;5092223;28;20042;-78
2022/02/18 01:34:32;;;;;;;27.70;2.67;;;4.10;99.90;;;;;;5090529;28;20036;-78
2022/02/18 01:36:58;;;;;;;20.30;2.85;;;4.10;99.90;;;;;;5090027;28;20046;-78
2022/02/18 01:39:23;;;;;;;19.92;2.55;;;4.10;99.90;;;;;;5091386;28;20050;-77
2022/02/18 01:41:49;;;;;;;21.88;2.80;;;4.00;99.90;;;;;;5070403;28;20375;-79
2022/02/18 01:44:38;;;;;;;18.05;2.08;;;4.00;99.90;;;;;;5070899;28;20044;-80
2022/02/18 01:47:06;;;;;;;22.38;2.55;;;4.00;99.90;;;;;;5120676;27;20039;-77
2022/02/18 01:49:31;;;;;;;19.73;2.70;;;4.00;99.90;;;;;;5091923;28;20186;-77
2022/02/18 01:51:58;;;;;;;21.45;2.50;;;4.00;99.90;;;;;;5088324;28;20543;-77
2022/02/18 01:54:24;;;;;;;22.10;3.00;;;4.00;99.90;;;;;;5089802;28;20157;-77
2022/02/18 01:56:50;;;;;;;17.55;2.67;;;4.00;99.90;;;;;;5087098;28;20127;-77
2022/02/18 01:59:16;;;;;;;20.83;2.70;;;4.00;99.90;;;;;;5075377;28;20116;-77
2022/02/18 02:01:41;;;;;;;22.88;2.90;;;3.90;99.90;;;;;;5092035;28;20120;-78
2022/02/18 02:04:07;;;;;;;20.40;2.50;;;4.00;99.90;;;;;;5125872;27;20032;-77
2022/02/18 02:06:33;;;;;;;26.95;2.50;;;3.90;99.90;;;;;;5106629;28;20089;-77
2022/02/18 02:08:59;;;;;;;19.38;2.63;;;3.90;99.90;;;;;;5090466;28;20055;-77
2022/02/18 02:11:25;;;;;;;20.48;2.40;;;3.80;99.90;;;;;;5108597;28;20054;-77
2022/02/18 02:13:51;;;;;;;16.52;2.05;;;3.80;99.90;;;;;;5123656;27;20071;-77
2022/02/18 02:16:17;;;;;;;16.85;2.08;;;3.90;99.90;;;;;;5091107;28;20055;-77
2022/02/18 02:18:44;;;;;;;13.60;2.17;;;3.80;99.90;;;;;;5085659;28;20078;-77
2022/02/18 02:21:15;;;;;;;20.23;2.30;;;3.80;99.90;;;;;;5089578;28;20548;-78
2022/02/18 02:23:41;;;;;;;15.02;1.90;;;3.80;99.90;;;;;;5089588;28;20123;-77
2022/02/18 02:26:15;;;;;;;18.90;2.28;;;3.90;99.90;;;;;;5105698;28;20115;-77
2022/02/18 02:28:41;;;;;;;23.88;2.67;;;3.70;99.90;;;;;;5121571;28;20134;-78
2022/02/18 02:31:07;;;;;;;20.08;2.67;;;3.70;99.90;;;;;;5106672;28;20115;-77
2022/02/18 02:33:33;;;;;;;15.57;2.13;;;3.70;99.90;;;;;;5073987;28;20047;-78
2022/02/18 02:35:59;;;;;;;13.73;2.38;;;3.70;99.90;;;;;;5067237;28;20122;-77
2022/02/18 02:38:25;;;;;;;23.75;2.53;;;3.60;99.90;;;;;;5068468;28;20118;-77
2022/02/18 02:40:50;;;;;;;20.17;2.10;;;3.70;99.90;;;;;;5086606;28;20040;-77
2022/02/18 02:43:16;;;;;;;21.40;2.53;;;3.70;99.90;;;;;;5091088;28;20036;-77
2022/02/18 02:45:42;;;;;;;22.48;2.67;;;3.80;99.90;;;;;;5087770;28;20122;-77
2022/02/18 02:48:08;;;;;;;20.42;2.40;;;3.70;99.90;;;;;;5085905;28;20440;-79
2022/02/18 02:50:34;;;;;;;18.45;2.38;;;3.70;99.90;;;;;;5086356;28;20047;-80
2022/02/18 02:52:59;;;;;;;23.92;2.58;;;3.70;99.90;;;;;;5086538;28;20044;-80
2022/02/18 02:55:25;;;;;;;25.05;3.03;;;3.70;99.90;;;;;;5095446;28;20035;-80
2022/02/18 02:57:51;;;;;;;23.83;2.33;;;3.80;99.90;;;;;;5129911;27;20448;-80
2022/02/18 03:00:17;;;;;;;23.40;3.30;;;3.80;99.90;;;;;;5095932;28;20104;-80
2022/02/18 03:02:44;;;;;;;18.20;2.75;;;3.90;99.90;;;;;;5077985;28;20056;-78
2022/02/18 03:05:10;;;;;;;21.15;2.78;;;3.90;99.90;;;;;;5096867;28;20118;-80
2022/02/18 03:08:27;;;;;;;;;;;;;;;;;;;;;
2022/02/18 03:15:17;;;;;;;21.95;2.67;;;4.00;99.90;;;;;;4989758;28;20049;-79
2022/02/18 03:18:22;;;;;;;22.63;3.03;;;4.40;99.90;;;;;;4991112;28;20042;-80
2022/02/18 03:21:33;;;;;;;15.30;2.60;;;4.30;99.90;;;;;;4990247;28;20501;-80
2022/02/18 03:27:50;;;;;;;15.15;2.17;;;3.70;99.90;;;;;;4930873;29;20043;-80
2022/02/18 03:30:29;;;;;;;20.50;2.40;;;4.50;99.90;;;;;;4932928;28;20043;-79
2022/02/18 03:32:55;;;;;;;18.00;2.33;;;4.10;99.90;;;;;;4931309;29;20150;-79
2022/02/18 03:35:21;;;;;;;16.33;2.40;;;4.10;99.90;;;;;;4928873;28;20051;-79
2022/02/18 03:37:46;;;;;;;16.90;2.15;;;4.10;99.90;;;;;;4930456;29;20056;-80
2022/02/18 03:40:12;;;;;;;15.73;2.05;;;4.10;99.90;;;;;;4929366;29;20039;-79
2022/02/18 03:42:38;;;;;;;16.33;2.25;;;4.10;99.90;;;;;;4954358;28;20066;-79
2022/02/18 03:45:04;;;;;;;25.00;2.47;;;4.10;99.90;;;;;;4971050;28;20054;-79
2022/02/18 03:47:30;;;;;;;15.45;2.42;;;4.20;99.90;;;;;;4973623;28;20385;-79
2022/02/18 03:49:55;;;;;;;18.88;2.17;;;4.10;99.90;;;;;;4972849;28;20077;-79
2022/02/18 03:52:21;;;;;;;13.20;1.90;;;4.10;99.90;;;;;;4990518;28;20190;-80
2022/02/18 03:54:46;;;;;;;17.95;2.20;;;4.20;99.90;;;;;;4974589;28;20046;-80
2022/02/18 03:57:12;;;;;;;17.33;2.53;;;4.20;99.90;;;;;;4985315;28;20129;-80
2022/02/18 03:59:38;;;;;;;17.35;2.45;;;4.20;99.90;;;;;;4990694;28;20073;-80
2022/02/18 04:02:03;;;;;;;18.40;2.08;;;4.20;99.90;;;;;;4991519;28;20089;-80
2022/02/18 04:04:29;;;;;;;20.25;1.98;;;4.20;99.90;;;;;;5029522;28;20453;-79
2022/02/18 04:06:55;;;;;;;15.52;2.00;;;4.30;99.90;;;;;;5072353;28;20056;-80
2022/02/18 04:09:20;;;;;;;12.60;2.00;;;4.20;99.90;;;;;;5035877;28;20091;-80
2022/02/18 04:11:46;;;;;;;12.10;1.73;;;4.20;99.90;;;;;;5029587;28;20028;-80
2022/02/18 04:14:11;;;;;;;17.10;1.75;;;4.50;99.90;;;;;;5046349;28;20041;-78
2022/02/18 04:16:37;;;;;;;15.68;1.98;;;4.30;99.90;;;;;;5040722;28;20128;-79
2022/02/18 04:19:03;;;;;;;14.18;1.95;;;4.30;99.90;;;;;;5035504;28;20048;-79
2022/02/18 04:21:28;;;;;;;10.57;1.58;;;4.30;99.90;;;;;;5031481;28;20041;-79
2022/02/18 04:23:56;;;;;;;10.50;1.55;;;4.30;99.90;;;;;;5047175;28;20053;-80
2022/02/18 04:26:22;;;;;;;13.13;1.70;;;4.30;99.90;;;;;;5036214;28;20057;-80
2022/02/18 04:28:48;;;;;;;16.85;2.20;;;4.30;99.90;;;;;;5038163;28;20804;-79
2022/02/18 04:31:14;;;;;;;13.88;1.77;;;4.40;99.90;;;;;;5041438;28;20037;-80
2022/02/18 04:33:40;;;;;;;10.45;1.75;;;4.70;99.90;;;;;;5047397;28;20369;-80
2022/02/18 04:36:06;;;;;;;17.50;1.80;;;4.40;99.90;;;;;;5043235;28;20039;-79
2022/02/18 04:38:31;;;;;;;16.65;2.22;;;4.40;99.90;;;;;;5036725;28;20087;-79
2022/02/18 04:40:58;;;;;;;13.50;1.65;;;4.40;99.90;;;;;;5046610;28;20033;-79
2022/02/18 04:43:24;;;;;;;14.80;1.70;;;4.40;99.90;;;;;;5037089;28;20127;-79
2022/02/18 04:45:50;;;;;;;10.07;2.08;;;4.50;99.90;;;;;;5043557;28;20151;-79
2022/02/18 04:48:16;;;;;;;12.60;1.73;;;4.40;99.90;;;;;;5052128;28;20128;-79
2022/02/18 04:50:41;;;;;;;10.25;2.00;;;4.50;99.90;;;;;;5020042;28;20060;-79
2022/02/18 04:53:07;;;;;;;11.88;1.85;;;4.50;99.90;;;;;;5031730;28;20033;-79
2022/02/18 04:55:33;;;;;;;12.30;2.25;;;4.60;99.90;;;;;;5018377;28;20503;-80
2022/02/18 04:57:58;;;;;;;13.95;1.95;;;4.60;99.90;;;;;;5018000;28;20205;-79
2022/02/18 05:00:24;;;;;;;16.63;2.30;;;4.70;99.90;;;;;;5017286;28;20499;-79
2022/02/18 05:02:49;;;;;;;14.65;2.08;;;4.70;99.90;;;;;;5047779;28;20071;-79
2022/02/18 05:05:15;;;;;;;12.90;2.25;;;4.60;99.90;;;;;;5035588;28;20393;-79
2022/02/18 05:07:42;;;;;;;15.90;1.88;;;4.70;99.90;;;;;;5037818;28;20052;-79
2022/02/18 05:10:12;;;;;;;11.95;2.05;;;4.80;99.90;;;;;;5071646;28;20064;-79
2022/02/18 05:12:37;;;;;;;16.48;2.17;;;4.70;99.90;;;;;;5054535;28;20499;-78
2022/02/18 05:15:04;;;;;;;12.77;2.20;;;4.70;99.90;;;;;;5050726;28;20036;-78
2022/02/18 05:17:30;;;;;;;15.88;2.22;;;4.70;99.90;;;;;;5054469;28;20051;-79
2022/02/18 05:19:57;;;;;;;17.17;2.53;;;4.80;99.90;;;;;;5054252;28;20040;-78
2022/02/18 05:22:22;;;;;;;11.25;2.05;;;4.80;99.90;;;;;;5031818;28;20040;-79
2022/02/18 05:24:48;;;;;;;13.70;2.30;;;4.80;99.90;;;;;;5049389;28;20058;-80
2022/02/18 05:27:14;;;;;;;17.52;2.13;;;4.80;99.90;;;;;;5040758;28;20037;-80
2022/02/18 05:29:40;;;;;;;18.00;2.30;;;4.90;99.90;;;;;;5050028;28;20133;-80
2022/02/18 05:32:06;;;;;;;19.17;2.65;;;4.90;99.90;;;;;;5035029;28;20044;-79
2022/02/18 05:34:32;;;;;;;22.50;3.20;;;4.90;99.90;;;;;;5020848;28;20398;-80
2022/02/18 05:36:58;;;;;;;19.85;2.90;;;4.80;99.90;;;;;;5022368;28;20064;-80
2022/02/18 05:39:23;;;;;;;18.00;2.65;;;4.90;99.90;;;;;;5047342;28;20089;-79
2022/02/18 05:41:50;;;;;;;19.77;2.90;;;4.90;99.90;;;;;;5041401;28;20508;-79
2022/02/18 05:44:16;;;;;;;19.45;2.85;;;4.90;99.90;;;;;;5042025;28;20147;-79
2022/02/18 05:46:42;;;;;;;15.00;3.17;;;4.90;99.90;;;;;;5027685;28;20518;-78
2022/02/18 05:49:08;;;;;;;19.90;3.83;;;4.90;99.90;;;;;;5035744;28;20040;-80
2022/02/18 05:51:34;;;;;;;15.63;3.70;;;5.00;99.90;;;;;;5023697;28;20510;-79
2022/02/18 05:54:00;;;;;;;18.48;3.78;;;5.00;99.90;;;;;;5035314;28;20349;-79
2022/02/18 05:56:26;;;;;;;22.77;3.97;;;5.00;99.90;;;;;;5044062;28;20040;-79
2022/02/18 05:58:52;;;;;;;22.23;4.10;;;5.00;99.90;;;;;;5044924;28;20037;-79
2022/02/18 06:01:20;;;;;;;22.05;3.65;;;5.00;99.90;;;;;;5064928;28;20108;-79
2022/02/18 06:03:47;;;;;;;17.10;3.85;;;5.00;99.90;;;;;;5034038;28;20047;-79
2022/02/18 06:06:13;;;;;;;15.80;3.65;;;5.00;99.90;;;;;;5033595;28;20032;-79
2022/02/18 06:08:39;;;;;;;27.83;4.70;;;5.10;99.90;;;;;;5038054;28;20125;-78
2022/02/18 06:11:04;;;;;;;24.80;4.78;;;5.00;99.90;;;;;;5044080;28;20044;-78
2022/02/18 06:13:30;;;;;;;25.52;4.57;;;5.10;99.90;;;;;;5027209;28;20036;-79
2022/02/18 06:15:55;;;;;;;24.50;4.65;;;5.20;99.90;;;;;;5030340;28;20041;-78
2022/02/18 06:18:21;;;;;;;27.83;4.45;;;5.10;99.90;;;;;;5035522;28;20110;-79
2022/02/18 06:20:47;;;;;;;25.73;4.35;;;5.10;99.90;;;;;;5027209;28;20117;-78
2022/02/18 06:23:13;;;;;;;27.40;4.38;;;5.10;99.90;;;;;;5041065;28;20523;-79
2022/02/18 06:25:38;;;;;;;26.63;4.30;;;5.20;99.90;;;;;;5042636;28;20056;-78
2022/02/18 06:28:11;;;;;;;21.17;4.22;;;5.10;99.90;;;;;;5023143;28;20353;-79
2022/02/18 06:30:37;;;;;;;21.08;3.85;;;5.10;99.90;;;;;;5024298;28;20047;-79
2022/02/18 06:33:07;;;;;;;31.58;4.45;;;5.20;99.90;;;;;;5024854;28;20268;-79
2022/02/18 06:35:39;;;;;;;24.17;4.10;;;5.10;99.90;;;;;;5037677;28;20051;-78
2022/02/18 06:38:06;;;;;;;18.77;4.40;;;5.10;99.90;;;;;;5040711;28;20044;-78
2022/02/18 06:40:34;;;;;;;19.25;3.78;;;5.30;99.90;;;;;;5010952;28;20136;-78
2022/02/18 06:42:59;;;;;;;17.73;3.90;;;5.20;99.90;;;;;;5033932;28;20040;-79
2022/02/18 06:45:25;;;;;;;37.47;4.78;;;5.10;99.90;;;;;;5018923;28;20041;-79
2022/02/18 06:47:51;;;;;;;27.63;4.57;;;5.10;99.90;;;;;;5040755;28;20107;-79
2022/02/18 06:50:17;;;;;;;34.90;5.20;;;5.10;99.90;;;;;;5040308;28;20064;-80
2022/02/18 06:52:44;;;;;;;26.27;4.97;;;5.10;99.90;;;;;;5023316;28;20028;-80
2022/02/18 06:55:10;;;;;;;25.02;4.97;;;5.10;99.90;;;;;;5039300;28;20068;-79
2022/02/18 06:57:44;;;;;;;25.73;5.07;;;5.10;99.90;;;;;;5039322;28;20045;-80
2022/02/18 07:00:13;;;;;;;30.55;5.45;;;5.10;99.90;;;;;;5022601;28;20111;-80
2022/02/18 07:02:39;;;;;;;29.90;5.15;;;5.10;99.90;;;;;;5032379;28;20051;-80
2022/02/18 07:05:09;;;;;;;30.55;5.10;;;5.10;99.90;;;;;;5019252;28;20033;-80
2022/02/18 07:07:36;;;;;;;39.65;5.28;;;5.20;99.90;;;;;;5015197;28;20061;-80
2022/02/18 07:10:06;;;;;;;20.33;4.50;;;5.20;99.90;;;;;;5031634;28;20064;-80
2022/02/18 07:12:32;;;;;;;30.90;4.72;;;5.20;99.90;;;;;;5029893;28;20115;-80
2022/02/18 07:14:58;;;;;;;33.72;5.47;;;5.20;99.90;;;;;;5034098;28;20188;-79
2022/02/18 07:17:26;;;;;;;28.23;5.65;;;5.20;99.90;;;;;;5032160;28;20040;-81
2022/02/18 07:19:53;;;;;;;32.22;5.50;;;5.30;99.90;;;;;;5018134;28;20049;-80
2022/02/18 07:22:19;;;;;;;27.05;5.47;;;5.20;99.90;;;;;;5018172;28;20041;-79
2022/02/18 07:24:46;;;;;;;28.88;5.82;;;5.30;99.90;;;;;;5030043;28;20445;-80
2022/02/18 07:27:12;;;;;;;36.78;6.07;;;5.40;99.90;;;;;;5046177;28;20033;-81
2022/02/18 07:29:39;;;;;;;41.45;7.00;;;5.30;99.90;;;;;;5028710;28;20055;-79
2022/02/18 07:32:05;;;;;;;33.92;6.25;;;5.40;99.90;;;;;;5013040;28;20029;-79
2022/02/18 07:34:31;;;;;;;35.03;6.65;;;5.40;99.90;;;;;;5012724;28;20080;-80
2022/02/18 07:36:57;;;;;;;38.35;7.32;;;5.40;99.90;;;;;;5047044;28;20098;-81
2022/02/18 07:39:23;;;;;;;24.55;6.68;;;5.50;99.90;;;;;;5012606;28;20087;-79
2022/02/18 07:41:48;;;;;;;33.65;7.53;;;5.50;99.90;;;;;;4998512;28;20084;-79
2022/02/18 07:44:14;;;;;;;36.40;7.57;;;5.50;99.90;;;;;;5022689;28;20098;-78
2022/02/18 07:46:40;;;;;;;37.63;8.63;;;5.60;99.90;;;;;;5046225;28;20035;-77
2022/02/18 07:49:06;;;;;;;39.25;8.27;;;5.60;99.90;;;;;;5038789;28;20041;-80
2022/02/18 07:51:31;;;;;;;43.53;8.68;;;5.70;99.90;;;;;;5017290;28;20068;-80
2022/02/18 07:53:57;;;;;;;35.42;8.65;;;5.60;99.90;;;;;;5028990;28;20115;-79
2022/02/18 07:56:23;;;;;;;35.90;8.13;;;5.70;99.90;;;;;;5015681;28;22089;-79
2022/02/18 07:58:49;;;;;;;41.75;9.45;;;5.70;99.90;;;;;;5036728;28;20120;-80
2022/02/18 08:01:17;;;;;;;46.75;10.02;;;5.70;99.90;;;;;;5016038;28;20388;-80
2022/02/18 08:03:47;;;;;;;46.75;10.02;;;5.80;99.90;;;;;;5016082;28;20047;-80
2022/02/18 08:06:13;;;;;;;44.58;10.15;;;5.80;99.90;;;;;;5017188;28;20495;-78
2022/02/18 08:08:42;;;;;;;40.33;9.18;;;5.90;99.90;;;;;;5032644;28;20077;-79
2022/02/18 08:11:12;;;;;;;43.78;10.07;;;5.80;99.90;;;;;;5037895;28;20045;-79
2022/02/18 08:13:38;;;;;;;42.05;9.20;;;5.90;99.90;;;;;;5031322;28;20032;-79
2022/02/18 08:16:04;;;;;;;54.25;10.35;;;5.80;99.90;;;;;;5032360;28;20368;-78
2022/02/18 08:18:30;;;;;;;39.72;9.05;;;6.00;99.90;;;;;;5021004;28;20119;-78
2022/02/18 08:20:56;;;;;;;40.80;8.15;;;6.00;99.90;;;;;;5035561;28;20436;-78
2022/02/18 08:23:21;;;;;;;35.63;7.65;;;6.00;99.90;;;;;;5038753;28;20545;-78
2022/02/18 08:25:47;;;;;;;45.97;8.05;;;6.10;99.90;;;;;;5055792;28;20509;-78
2022/02/18 08:28:13;;;;;;;45.17;8.68;;;6.10;99.90;;;;;;5044452;28;20033;-78
2022/02/18 08:30:39;;;;;;;36.58;8.18;;;6.20;99.90;;;;;;5056528;28;20503;-78
2022/02/18 08:33:04;;;;;;;39.65;8.18;;;6.00;99.90;;;;;;5035009;28;20047;-78
2022/02/18 08:35:30;;;;;;;39.05;7.07;;;6.40;99.90;;;;;;5033603;28;20044;-80
2022/02/18 08:37:57;;;;;;;31.10;6.82;;;6.40;99.90;;;;;;5017160;28;20052;-80
2022/02/18 08:40:23;;;;;;;30.38;6.50;;;6.20;99.90;;;;;;5033877;28;20152;-80
2022/02/18 08:42:49;;;;;;;29.13;5.93;;;6.20;99.90;;;;;;5030706;28;20057;-80
2022/02/18 08:45:14;;;;;;;40.25;7.68;;;6.20;99.90;;;;;;5038730;28;20183;-80
2022/02/18 08:47:40;;;;;;;25.17;6.05;;;6.20;99.90;;;;;;5045835;28;20032;-81
2022/02/18 08:50:09;;;;;;;34.90;7.13;;;6.20;99.90;;;;;;5022015;28;20055;-79
2022/02/18 08:52:36;;;;;;;35.22;7.53;;;6.20;99.90;;;;;;5014438;28;20080;-80
2022/02/18 08:55:04;;;;;;;27.65;5.70;;;6.20;99.90;;;;;;5036228;28;20094;-78
2022/02/18 08:57:31;;;;;;;24.52;4.70;;;6.20;99.90;;;;;;5015704;28;20072;-78
2022/02/18 08:59:56;;;;;;;26.33;5.10;;;6.30;99.90;;;;;;5031782;28;20152;-77
2022/02/18 09:02:24;;;;;;;23.35;5.05;;;6.30;99.90;;;;;;5036689;28;20033;-78
2022/02/18 09:04:51;;;;;;;23.42;4.82;;;6.30;99.90;;;;;;5021880;28;20048;-78
2022/02/18 09:07:17;;;;;;;23.35;4.95;;;6.40;99.90;;;;;;5034462;28;20130;-78
2022/02/18 09:09:43;;;;;;;21.17;4.03;;;6.50;99.90;;;;;;5040070;28;20036;-80
2022/02/18 09:12:09;;;;;;;17.38;4.28;;;6.50;99.90;;;;;;5017344;28;20049;-80
2022/02/18 09:14:35;;;;;;;20.85;4.47;;;6.60;99.90;;;;;;5033000;28;20147;-79
2022/02/18 09:17:00;;;;;;;12.63;3.05;;;6.50;99.90;;;;;;5034970;28;20045;-83
2022/02/18 09:19:26;;;;;;;12.85;3.50;;;6.50;99.90;;;;;;5029469;28;20045;-77
2022/02/18 09:21:55;;;;;;;12.40;3.50;;;6.60;99.90;;;;;;5034249;28;20049;-82
2022/02/18 09:25:10;;;;;;;19.38;3.67;;;6.50;99.90;;;;;;5053141;28;20124;-81
2022/02/18 09:27:36;;;;;;;19.20;3.88;;;6.60;99.90;;;;;;5013791;28;20044;-80
2022/02/18 09:30:12;;;;;;;12.68;3.67;;;6.60;99.90;;;;;;5037998;28;20499;-79
2022/02/18 09:32:38;;;;;;;16.55;3.40;;;6.80;99.90;;;;;;5044640;28;20090;-83
2022/02/18 09:35:04;;;;;;;16.50;3.88;;;7.70;99.90;;;;;;5047395;28;20040;-82
2022/02/18 09:37:31;;;;;;;12.52;3.97;;;6.80;99.90;;;;;;5048835;28;20062;-83
2022/02/18 09:39:57;;;;;;;16.25;3.60;;;6.80;99.90;;;;;;5036795;28;20087;-81
2022/02/18 09:42:47;;;;;;;15.98;3.78;;;6.90;99.90;;;;;;5035835;28;20056;-82
2022/02/18 09:45:20;;;;;;;;;;;7.60;99.90;;;;;;5053804;28;20044;-79
2022/02/18 09:47:51;;;;;;;14.32;4.03;;;7.70;99.90;;;;;;5021529;28;19923;-80
2022/02/18 09:50:18;;;;;;;14.00;3.90;;;6.90;99.90;;;;;;5014934;28;20055;-80
2022/02/18 09:52:44;;;;;;;11.00;3.50;;;7.00;99.90;;;;;;5030412;28;20050;-80
2022/02/18 09:55:10;;;;;;;14.80;4.20;;;7.00;99.90;;;;;;5016397;28;20524;-79
2022/02/18 09:57:42;;;;;;;16.50;4.60;;;7.00;99.90;;;;;;5016586;28;20539;-81
2022/02/18 10:00:10;;;;;;;17.75;4.07;;;7.10;99.90;;;;;;5038748;28;20032;-81
2022/02/18 10:02:37;;;;;;;18.38;4.53;;;7.10;99.90;;;;;;5017788;28;20098;-81
2022/02/18 10:05:04;;;;;;;13.45;4.25;;;7.20;99.90;;;;;;5017007;28;20060;-80
2022/02/18 10:07:31;;;;;;;14.10;5.13;;;7.20;99.90;;;;;;5041213;28;20071;-80
2022/02/18 10:09:57;;;;;;;10.98;3.38;;;7.30;99.90;;;;;;5027900;28;20051;-82
2022/02/18 10:12:38;;;;;;;10.75;4.40;;;7.40;99.90;;;;;;5035153;28;20121;-81
2022/02/18 10:15:09;;;;;;;15.38;5.30;;;7.50;99.90;;;;;;5029933;28;20496;-82
2022/02/18 10:17:47;;;;;;;16.52;5.38;;;7.50;99.90;;;;;;5021199;28;20044;-80
2022/02/18 10:20:22;;;;;;;14.75;5.00;;;7.60;99.90;;;;;;5030206;28;20437;-79
2022/02/18 10:23:07;;;;;;;12.82;4.95;;;7.70;99.90;;;;;;5032857;28;20108;-79
2022/02/18 10:25:39;;;;;;;12.63;4.25;;;7.80;99.90;;;;;;5031532;28;20075;-75
2022/02/18 10:28:08;;;;;;;10.57;4.88;;;7.90;99.90;;;;;;5031541;28;20041;-78
2022/02/18 10:30:34;;;;;;;13.40;5.00;;;8.00;99.90;;;;;;5032859;28;20353;-81
2022/02/18 10:33:12;;;;;;;16.52;5.30;;;8.00;99.90;;;;;;5028732;28;20053;-78
2022/02/18 10:35:39;;;;;;;11.40;4.75;;;8.10;99.90;;;;;;5048325;28;20472;-78
2022/02/18 10:38:07;;;;;;;11.63;5.72;;;8.30;99.90;;;;;;5031557;28;20032;-78
2022/02/18 10:40:49;;;;;;;15.38;6.03;;;8.40;99.90;;;;;;5032038;28;20376;-77
2022/02/18 10:43:18;;;;;;;10.35;5.05;;;8.50;99.90;;;;;;5028590;28;20116;-78
2022/02/18 10:45:51;;;;;;;19.40;6.40;;;8.70;99.90;;;;;;5033090;28;20148;-79
2022/02/18 10:48:20;;;;;;;14.77;6.13;;;8.70;99.90;;;;;;5045681;28;20314;-78
2022/02/18 10:51:06;;;;;;;13.20;5.95;;;8.80;99.90;;;;;;5031087;28;20068;-77
2022/02/18 10:53:40;;;;;;;13.95;5.93;;;8.90;99.90;;;;;;5038237;28;20516;-79
2022/02/18 10:56:11;;;;;;;13.68;4.88;;;9.00;99.90;;;;;;5043497;28;20052;-78
2022/02/18 10:58:39;;;;;;;12.77;5.72;;;9.20;99.90;;;;;;5018676;28;20040;-76
2022/02/18 11:01:28;;;;;;;13.00;6.10;;;9.10;99.90;;;;;;5033248;28;20068;-76
2022/02/18 11:04:04;;;;;;;13.75;5.78;;;9.20;99.90;;;;;;5019402;28;20040;-76
2022/02/18 11:06:32;;;;;;;12.73;5.80;;;9.20;99.90;;;;;;5034873;28;20052;-76
2022/02/18 11:09:10;;;;;;;16.67;6.28;;;9.30;99.90;;;;;;5026311;28;20084;-82
2022/02/18 11:11:44;;;;;;;9.23;4.95;;;9.50;99.90;;;;;;5029594;28;20044;-81
2022/02/18 11:14:12;;;;;;;11.20;5.55;;;9.50;99.90;;;;;;5030386;28;20047;-81
2022/02/18 11:16:52;;;;;;;14.50;5.20;;;9.40;99.90;;;;;;5048835;28;20041;-82
2022/02/18 11:19:19;;;;;;;16.30;5.78;;;9.40;99.90;;;;;;5019673;28;20511;-81
2022/02/18 11:21:45;;;;;;;17.20;5.53;;;9.40;99.90;;;;;;5036739;28;20461;-79
2022/02/18 11:24:16;;;;;;;10.07;4.93;;;9.50;99.90;;;;;;5024762;28;20084;-85
2022/02/18 11:26:46;;;;;;;10.40;4.93;;;9.50;99.90;;;;;;5056189;28;20052;-79
2022/02/18 11:29:12;;;;;;;11.40;4.88;;;9.50;99.90;;;;;;5039443;28;20150;-79
2022/02/18 11:31:49;;;;;;;11.13;4.53;;;9.50;99.90;;;;;;5049946;28;20721;-77
2022/02/18 11:34:20;;;;;;;9.27;4.63;;;10.10;99.90;;;;;;5040599;28;20333;-79
2022/02/18 11:37:13;;;;;;;9.43;4.43;;;9.60;99.90;;;;;;5037230;28;20037;-79
2022/02/18 11:40:14;;;;;;;11.60;4.68;;;9.60;99.90;;;;;;5054063;28;20357;-80
2022/02/18 11:43:25;;;;;;;5.75;3.53;;;9.70;99.90;;;;;;4953476;28;20066;-79
2022/02/18 11:46:03;;;;;;;7.65;4.32;;;9.80;99.90;;;;;;4936164;28;21917;-79
2022/02/18 11:48:46;;;;;;;9.13;3.92;;;9.80;99.90;;;;;;4940899;28;20038;-80
2022/02/18 11:51:20;;;;;;;6.95;4.07;;;9.80;99.90;;;;;;4951579;28;20368;-81
2022/02/18 11:53:50;;;;;;;6.38;3.53;;;9.80;99.90;;;;;;4939293;28;20061;-80
2022/02/18 11:56:38;;;;;;;8.52;4.55;;;9.90;99.90;;;;;;4970545;28;20122;-82
2022/02/18 11:59:04;;;;;;;8.20;3.40;;;10.10;99.90;;;;;;4954158;28;20050;-78
2022/02/18 12:02:09;;;;;;;5.13;3.92;;;10.00;99.90;;;;;;4970501;28;20049;-83
2022/02/18 12:04:39;;;;;;;3.93;3.10;;;10.10;99.90;;;;;;4952232;28;20495;-83
2022/02/18 12:07:24;;;;;;;7.30;3.55;;;10.10;99.90;;;;;;4956337;28;20301;-84
2022/02/18 12:09:51;;;;;;;;;;;10.20;99.90;;;;;;4971690;28;20527;-83
2022/02/18 12:12:20;;;;;;;6.35;3.97;;;10.20;99.90;;;;;;4963390;28;19987;-78
2022/02/18 12:14:49;;;;;;;9.02;3.63;;;10.20;99.90;;;;;;4969312;28;20053;-81
2022/02/18 12:17:16;;;;;;;8.00;4.03;;;10.30;99.90;;;;;;4971233;28;20046;-78
2022/02/18 12:19:41;;;;;;;8.27;4.15;;;10.20;99.90;;;;;;5035214;28;20083;-80
2022/02/18 12:22:07;;;;;;;6.47;3.65;;;10.30;99.90;;;;;;5051483;28;20055;-82
2022/02/18 12:24:46;;;;;;;6.22;3.90;;;10.30;99.90;;;;;;5050554;28;20044;-80
2022/02/18 12:27:24;;;;;;;4.15;3.38;;;10.30;99.90;;;;;;5051876;28;20047;-82
2022/02/18 12:29:51;;;;;;;6.88;3.10;;;10.40;99.90;;;;;;5050317;28;20052;-79
2022/02/18 12:32:17;;;;;;;5.72;3.78;;;10.40;99.90;;;;;;5039072;28;20060;-82
2022/02/18 12:34:44;;;;;;;4.47;3.55;;;10.50;99.90;;;;;;5045865;28;20138;-80
2022/02/18 12:37:15;;;;;;;5.53;3.58;;;10.60;99.90;;;;;;5049123;28;20507;-77
2022/02/18 12:39:57;;;;;;;8.52;4.05;;;10.50;99.90;;;;;;5050919;28;20057;-77
2022/02/18 12:42:29;;;;;;;7.75;3.85;;;10.40;99.90;;;;;;5077330;28;20126;-77
2022/02/18 12:45:00;;;;;;;7.07;4.07;;;10.50;99.90;;;;;;5051805;28;20060;-84
2022/02/18 12:47:32;;;;;;;6.57;4.22;;;10.30;99.90;;;;;;5039544;28;20040;-80
2022/02/18 12:50:01;;;;;;;5.88;2.00;;;10.30;99.90;;;;;;5036946;28;20052;-81
2022/02/18 12:52:30;;;;;;;4.35;1.40;;;10.30;99.90;;;;;;5058861;28;20045;-79
2022/02/18 12:55:02;;;;;;;3.00;1.00;;;10.20;99.90;;;;;;5051710;28;20042;-79
2022/02/18 12:57:30;;;;;;;9.60;1.02;;;10.70;99.90;;;;;;5053813;28;20060;-78
2022/02/18 12:59:57;;;;;;;3.90;0.80;;;9.90;99.90;;;;;;5062023;28;20425;-80
2022/02/18 13:02:39;;;;;;;3.85;0.70;;;9.70;99.90;;;;;;5052539;28;20375;-80
2022/02/18 13:05:07;;;;;;;2.72;0.73;;;9.80;99.90;;;;;;5067494;28;20468;-78